Norfolk, Virginia
Traffic Map
Current Weather Conditions
Norfolk, Virginia
Overcast
Overcast
69°
Feels Like: 69°
Wind Chill: 69° Ceiling: 8000
Heat Index: 69° Visibility: 10mi
Dew Point: 55° Wind: 3mph
Humidity: 61% Direction: 130° (SE)
Pressure: 30.06in Gusts: 0mph
Raw Report DataKORF 190051Z AUTO 13003KT 10SM OVC080 21/13 A3006 RMK AO2 SLP178 T02060128 TSNO
Traffic Incident Summary
Active as of:
Severity:
Category:
InformationThere was an issue retrieving the traffic information for this location. Please try a different location or try again shortly.
Advertisements
Track Severe Weather on mobile